createdAt,value
2022-11-21T00:00:29.907Z,0.18
2022-11-21T00:03:32.646Z,0.18
2022-11-21T00:06:35.146Z,0.17
2022-11-21T00:09:37.935Z,0.13
2022-11-21T00:12:40.642Z,0.15
2022-11-21T00:15:44.007Z,0.15
2022-11-21T00:18:46.523Z,0.16
2022-11-21T00:21:49.370Z,0.19
2022-11-21T00:24:54.273Z,0.25
2022-11-21T00:27:57.617Z,0.28
2022-11-21T00:31:00.182Z,0.26
2022-11-21T00:34:03.023Z,0.24
2022-11-21T00:37:05.567Z,0.19
2022-11-21T00:40:09.039Z,0.13
2022-11-21T00:43:11.726Z,0.10
2022-11-21T00:46:14.600Z,0.05
2022-11-21T00:49:17.154Z,0.02
2022-11-21T00:52:19.952Z,-0.03
2022-11-21T00:55:23.336Z,-0.07
2022-11-21T00:58:27.187Z,-0.12
2022-11-21T01:01:29.809Z,-0.10
2022-11-21T01:04:34.240Z,-0.05
2022-11-21T01:07:36.807Z,-0.02
2022-11-21T01:10:39.801Z,0.02
2022-11-21T01:13:42.721Z,0.01
2022-11-21T01:16:45.798Z,-0.01
2022-11-21T01:19:48.313Z,0.02
2022-11-21T01:22:51.218Z,0.04
2022-11-21T01:25:53.888Z,0.04
2022-11-21T01:29:00.265Z,0.01
2022-11-21T01:32:02.706Z,0.00
2022-11-21T01:35:05.920Z,-0.01
2022-11-21T01:38:08.579Z,-0.03
2022-11-21T01:41:12.994Z,-0.08
2022-11-21T01:44:21.109Z,-0.12
2022-11-21T01:47:23.940Z,-0.13
2022-11-21T01:50:26.761Z,-0.10
2022-11-21T01:53:29.717Z,-0.10
2022-11-21T01:56:38.087Z,-0.11
2022-11-21T02:00:00.672Z,-0.35
2022-11-21T02:03:09.423Z,-0.08
2022-11-21T02:06:12.629Z,-0.20
2022-11-21T02:09:15.220Z,-0.10
2022-11-21T02:12:29.535Z,-0.10
2022-11-21T02:15:32.326Z,-0.05
2022-11-21T02:18:35.371Z,-0.01
2022-11-21T02:21:58.714Z,0.02
2022-11-21T02:25:04.724Z,0.01
2022-11-21T02:28:09.808Z,0.07
2022-11-21T02:31:12.649Z,0.07
2022-11-21T02:34:15.242Z,0.04
2022-11-21T02:37:18.420Z,-0.01
2022-11-21T02:40:28.215Z,-0.03
2022-11-21T02:43:37.752Z,-0.05
2022-11-21T02:46:50.230Z,-0.08
2022-11-21T02:50:00.415Z,-0.09
2022-11-21T02:53:04.402Z,-0.11
2022-11-21T02:56:07.087Z,-0.10
2022-11-21T02:59:10.525Z,-0.14
2022-11-21T03:02:13.329Z,-0.13
2022-11-21T03:05:18.207Z,-0.14
2022-11-21T03:08:21.125Z,-0.12
2022-11-21T03:11:23.666Z,-0.14
2022-11-21T03:14:26.823Z,-0.13
2022-11-21T03:17:29.702Z,-0.15
2022-11-21T03:20:34.518Z,-0.17
2022-11-21T03:23:37.121Z,-0.18
2022-11-21T03:26:40.065Z,-0.19
2022-11-21T03:29:42.682Z,-0.16
2022-11-21T03:32:45.589Z,-0.09
2022-11-21T03:35:48.422Z,-0.01
2022-11-21T03:38:51.491Z,0.08
2022-11-21T03:41:54.041Z,0.08
2022-11-21T03:44:56.925Z,0.02
2022-11-21T03:47:59.500Z,-0.05
2022-11-21T03:51:02.503Z,-0.11
2022-11-21T03:54:05.799Z,-0.10
2022-11-21T03:57:08.855Z,-0.08
2022-11-21T04:00:12.346Z,-0.13
2022-11-21T04:03:15.356Z,-0.18
2022-11-21T04:06:19.657Z,-0.21
2022-11-21T04:09:22.485Z,-0.14
2022-11-21T04:12:24.994Z,-0.17
2022-11-21T04:15:27.813Z,-0.16
2022-11-21T04:18:30.549Z,-0.19
2022-11-21T04:21:33.523Z,-0.23
2022-11-21T04:24:36.269Z,-0.27
2022-11-21T04:27:39.115Z,-0.31
2022-11-21T04:30:41.830Z,-0.30
2022-11-21T04:33:44.751Z,-0.36
2022-11-21T04:36:47.507Z,-0.38
2022-11-21T04:39:50.411Z,-0.52
2022-11-21T04:42:52.946Z,-0.48
2022-11-21T04:45:55.923Z,-0.52
2022-11-21T04:48:58.682Z,-0.54
2022-11-21T04:52:01.578Z,-0.59
2022-11-21T04:55:04.777Z,-0.68
2022-11-21T04:58:07.895Z,-0.88
2022-11-21T05:01:10.622Z,-0.93
2022-11-21T05:04:13.488Z,-0.87
2022-11-21T05:07:16.541Z,-0.86
2022-11-21T05:10:19.519Z,-0.84
2022-11-21T05:13:22.151Z,-0.81
2022-11-21T05:16:25.131Z,-0.81
2022-11-21T05:19:27.959Z,-0.77
2022-11-21T05:22:30.835Z,-0.80
2022-11-21T05:25:33.371Z,-0.83
2022-11-21T05:28:36.162Z,-0.82
2022-11-21T05:31:41.405Z,-0.83
2022-11-21T05:34:44.281Z,-0.81
2022-11-21T05:37:46.931Z,-0.84
2022-11-21T05:40:52.777Z,-0.85
2022-11-21T05:43:55.473Z,-0.82
2022-11-21T05:46:58.351Z,-0.77
2022-11-21T05:50:00.997Z,-0.75
2022-11-21T05:53:04.916Z,-0.74
2022-11-21T05:56:10.511Z,-0.65
2022-11-21T05:59:13.499Z,-0.64
2022-11-21T06:02:34.787Z,-0.65
2022-11-21T06:05:37.901Z,-0.64
2022-11-21T06:08:45.535Z,0.57
2022-11-21T06:11:48.443Z,0.50
2022-11-21T06:14:51.040Z,0.28
2022-11-21T06:17:53.818Z,0.18
2022-11-21T06:21:12.674Z,-0.06
2022-11-21T06:24:20.725Z,1.97
2022-11-21T06:27:24.717Z,1.09
2022-11-21T06:30:27.671Z,0.87
2022-11-21T06:33:30.261Z,0.60
2022-11-21T06:36:33.138Z,0.46
2022-11-21T06:39:35.892Z,0.35
2022-11-21T06:42:38.793Z,0.20
2022-11-21T06:45:41.398Z,0.15
2022-11-21T06:48:44.841Z,0.15
2022-11-21T06:51:47.539Z,0.15
2022-11-21T06:54:50.389Z,0.18
2022-11-21T06:57:57.315Z,0.19
2022-11-21T07:01:05.507Z,0.24
2022-11-21T07:04:08.232Z,0.28
2022-11-21T07:07:11.045Z,0.29
2022-11-21T07:10:13.957Z,0.28
2022-11-21T07:13:22.791Z,0.25
2022-11-21T07:16:26.529Z,0.16
2022-11-21T07:19:29.713Z,-0.01
2022-11-21T07:22:32.979Z,0.07
2022-11-21T07:25:36.946Z,0.18
2022-11-21T07:28:40.041Z,0.28
2022-11-21T07:31:43.078Z,0.43
2022-11-21T07:34:45.627Z,0.51
2022-11-21T07:37:48.641Z,0.68
2022-11-21T07:40:51.740Z,0.77
2022-11-21T07:43:54.550Z,1.04
2022-11-21T07:46:57.131Z,1.04
2022-11-21T07:50:00.261Z,1.10
2022-11-21T07:53:05.550Z,1.10
2022-11-21T07:56:11.302Z,1.04
2022-11-21T07:59:13.873Z,1.03
2022-11-21T08:02:22.885Z,1.02
2022-11-21T08:05:25.711Z,1.14
2022-11-21T08:08:28.353Z,1.18
2022-11-21T08:11:32.526Z,1.30
2022-11-21T08:14:35.533Z,1.37
2022-11-21T08:17:39.145Z,1.43
2022-11-21T08:20:42.883Z,1.50
2022-11-21T08:23:45.790Z,1.59
2022-11-21T08:26:48.495Z,1.59
2022-11-21T08:29:51.423Z,1.60
2022-11-21T08:32:58.526Z,1.55
2022-11-21T08:36:07.673Z,1.51
2022-11-21T08:39:10.267Z,1.67
2022-11-21T08:42:13.385Z,1.97
2022-11-21T08:45:15.882Z,2.06
2022-11-21T08:48:19.149Z,2.40
2022-11-21T08:51:22.196Z,2.65
2022-11-21T08:54:25.053Z,2.92
2022-11-21T08:57:28.026Z,3.23
2022-11-21T09:00:30.851Z,3.53
2022-11-21T09:03:33.525Z,3.71
2022-11-21T09:06:36.797Z,3.91
2022-11-21T09:09:39.325Z,4.18
2022-11-21T09:12:42.267Z,4.44
2022-11-21T09:16:03.382Z,4.78
2022-11-21T09:19:06.586Z,5.07
2022-11-21T09:22:09.074Z,5.09
2022-11-21T09:25:11.899Z,5.36
2022-11-21T09:28:14.813Z,5.34
2022-11-21T09:31:17.745Z,5.15
2022-11-21T09:34:20.461Z,4.35
2022-11-21T09:37:23.309Z,3.81
2022-11-21T09:40:26.373Z,3.38
2022-11-21T09:43:49.647Z,3.05
2022-11-21T09:47:04.510Z,2.78
2022-11-21T09:50:27.185Z,2.62
2022-11-21T09:53:36.294Z,2.51
2022-11-21T09:56:41.458Z,2.39
2022-11-21T09:59:44.855Z,2.07
2022-11-21T10:02:48.360Z,1.98
2022-11-21T10:05:55.516Z,1.91
2022-11-21T10:09:00.991Z,1.81
2022-11-21T10:12:38.041Z,1.93
2022-11-21T10:15:49.963Z,1.90
2022-11-21T10:19:22.676Z,2.02
2022-11-21T10:22:39.426Z,2.14
2022-11-21T10:26:10.022Z,2.27
2022-11-21T10:29:22.231Z,2.37
2022-11-21T10:32:35.374Z,2.45
2022-11-21T10:35:44.642Z,2.59
2022-11-21T10:38:50.197Z,2.78
2022-11-21T10:42:42.249Z,2.88
2022-11-21T10:45:45.189Z,3.13
2022-11-21T10:49:03.347Z,3.26
2022-11-21T10:52:19.201Z,3.39
2022-11-21T10:55:21.695Z,3.62
2022-11-21T10:58:51.282Z,3.77
2022-11-21T11:02:23.331Z,3.76
2022-11-21T11:05:28.043Z,3.77
2022-11-21T11:08:50.371Z,3.82
2022-11-21T11:11:53.302Z,3.86
2022-11-21T11:14:56.819Z,3.86
2022-11-21T11:18:08.871Z,3.88
2022-11-21T11:21:22.298Z,4.02
2022-11-21T11:24:27.515Z,4.10
2022-11-21T11:27:30.114Z,4.17
2022-11-21T11:30:37.340Z,4.16
2022-11-21T11:33:41.636Z,4.10
2022-11-21T11:36:55.607Z,4.19
2022-11-21T11:39:58.060Z,4.29
2022-11-21T11:43:32.830Z,4.27
2022-11-21T11:47:21.501Z,4.31
2022-11-21T11:50:29.071Z,4.37
2022-11-21T11:53:42.394Z,4.40
2022-11-21T11:56:47.220Z,4.43
2022-11-21T12:00:18.125Z,4.64
2022-11-21T12:03:36.900Z,4.78
2022-11-21T12:07:36.159Z,4.98
2022-11-21T12:10:26.201Z,5.14
2022-11-21T12:13:30.286Z,5.07
2022-11-21T12:16:34.460Z,5.23
2022-11-21T12:19:38.373Z,5.25
2022-11-21T12:22:41.639Z,5.33
2022-11-21T12:25:57.927Z,5.30
2022-11-21T12:29:17.019Z,5.27
2022-11-21T12:32:31.945Z,5.33
2022-11-21T12:36:16.382Z,5.33
2022-11-21T12:39:33.205Z,5.34
2022-11-21T12:42:50.042Z,5.37
2022-11-21T12:46:08.836Z,5.41
2022-11-21T12:49:42.540Z,5.33
2022-11-21T12:53:07.447Z,5.59
2022-11-21T12:56:24.126Z,5.63
2022-11-21T12:59:27.437Z,5.70
2022-11-21T13:02:48.883Z,5.72
2022-11-21T13:05:53.298Z,5.70
2022-11-21T13:08:57.642Z,5.70
2022-11-21T13:12:07.874Z,5.69
2022-11-21T13:15:38.469Z,5.56
2022-11-21T13:18:48.264Z,5.60
2022-11-21T13:21:57.235Z,5.59
2022-11-21T13:25:01.193Z,5.61
2022-11-21T13:28:13.235Z,5.64
2022-11-21T13:31:33.058Z,5.78
2022-11-21T13:34:37.549Z,5.88
2022-11-21T13:37:52.487Z,5.93
2022-11-21T13:41:14.195Z,5.96
2022-11-21T13:44:32.234Z,5.96
2022-11-21T13:48:03.480Z,5.90
2022-11-21T13:51:20.499Z,5.79
2022-11-21T13:54:39.849Z,5.61
2022-11-21T13:57:51.499Z,5.47
2022-11-21T14:01:31.789Z,5.42
2022-11-21T14:04:53.203Z,5.30
2022-11-21T14:08:21.383Z,5.23
2022-11-21T14:11:37.031Z,5.12
2022-11-21T14:14:54.303Z,4.92
2022-11-21T14:17:58.618Z,4.83
2022-11-21T14:21:02.085Z,4.62
2022-11-21T14:24:14.547Z,4.40
2022-11-21T14:27:27.948Z,4.22
2022-11-21T14:30:32.813Z,4.02
2022-11-21T14:33:41.195Z,3.80
2022-11-21T14:36:44.230Z,3.65
2022-11-21T14:39:52.791Z,3.54
2022-11-21T14:43:01.235Z,3.44
2022-11-21T14:46:03.981Z,3.45
2022-11-21T14:49:17.754Z,3.32
2022-11-21T14:52:26.918Z,3.12
2022-11-21T14:55:32.121Z,3.02
2022-11-21T14:58:34.951Z,2.97
2022-11-21T15:01:40.961Z,2.91
2022-11-21T15:04:48.186Z,2.83
2022-11-21T15:07:57.470Z,2.76
2022-11-21T15:11:15.133Z,2.74
2022-11-21T15:14:21.001Z,3.37
2022-11-21T15:17:25.137Z,3.16
2022-11-21T15:20:28.831Z,3.01
2022-11-21T15:23:36.726Z,2.91
2022-11-21T15:26:41.106Z,2.80
2022-11-21T15:29:43.685Z,2.78
2022-11-21T15:33:02.395Z,2.76
2022-11-21T15:36:13.743Z,2.70
2022-11-21T15:39:21.507Z,2.78
2022-11-21T15:42:33.169Z,2.74
2022-11-21T15:45:36.571Z,2.75
2022-11-21T15:48:39.104Z,2.68
2022-11-21T15:55:17.670Z,2.67
2022-11-21T15:58:20.537Z,2.74
2022-11-21T16:01:29.857Z,2.67
2022-11-21T16:04:32.827Z,2.69
2022-11-21T16:07:35.468Z,2.69
2022-11-21T16:10:38.397Z,2.67
2022-11-21T16:13:40.894Z,2.65
2022-11-21T16:16:44.435Z,2.59
2022-11-21T16:19:47.136Z,2.62
2022-11-21T16:22:50.169Z,2.57
2022-11-21T16:25:54.038Z,2.58
2022-11-21T16:28:58.475Z,2.60
2022-11-21T16:32:01.081Z,2.57
2022-11-21T16:35:04.604Z,2.61
2022-11-21T16:38:11.241Z,2.58
2022-11-21T16:41:14.319Z,2.55
2022-11-21T16:44:17.162Z,2.55
2022-11-21T16:47:20.022Z,2.55
2022-11-21T16:50:22.645Z,2.52
2022-11-21T16:53:25.521Z,2.51
2022-11-21T16:56:28.302Z,2.54
2022-11-21T16:59:32.233Z,2.59
2022-11-21T17:02:37.084Z,2.63
2022-11-21T17:05:39.888Z,2.59
2022-11-21T17:08:42.748Z,2.66
2022-11-21T17:11:45.660Z,2.64
2022-11-21T17:14:48.145Z,2.62
2022-11-21T17:17:51.583Z,2.59
2022-11-21T17:20:54.794Z,2.58
2022-11-21T17:23:58.393Z,4.44
2022-11-21T17:27:02.606Z,3.99
2022-11-21T17:30:06.377Z,3.48
2022-11-21T17:33:13.014Z,3.27
2022-11-21T17:36:20.823Z,2.96
2022-11-21T17:39:29.370Z,2.86
2022-11-21T17:42:33.020Z,2.82
2022-11-21T17:45:36.284Z,2.72
2022-11-21T17:48:39.651Z,2.57
2022-11-21T17:51:46.106Z,2.43
2022-11-21T17:54:49.247Z,2.44
2022-11-21T17:57:52.068Z,2.44
2022-11-21T18:00:56.362Z,2.47
2022-11-21T18:04:01.236Z,2.50
2022-11-21T18:07:04.113Z,2.50
2022-11-21T18:10:40.631Z,2.52
2022-11-21T18:13:32.903Z,2.50
2022-11-21T18:16:36.146Z,2.49
2022-11-21T18:19:39.181Z,2.47
2022-11-21T18:22:42.873Z,2.49
2022-11-21T18:25:46.932Z,2.42
2022-11-21T18:29:07.163Z,2.51
2022-11-21T18:32:14.780Z,2.44
2022-11-21T18:35:17.791Z,2.45
2022-11-21T18:38:46.981Z,2.41
2022-11-21T18:41:44.067Z,2.38
2022-11-21T18:44:47.121Z,2.36
2022-11-21T18:47:53.143Z,2.36
2022-11-21T18:51:03.736Z,2.36
2022-11-21T18:54:08.605Z,2.30
2022-11-21T18:57:11.662Z,2.31
2022-11-21T19:00:15.129Z,2.23
2022-11-21T19:03:19.866Z,2.18
2022-11-21T19:06:25.092Z,2.16
2022-11-21T19:09:32.440Z,2.13
2022-11-21T19:12:39.417Z,2.15
2022-11-21T19:15:45.436Z,2.12
2022-11-21T19:19:11.670Z,2.13
2022-11-21T19:22:14.611Z,2.10
2022-11-21T19:25:19.450Z,2.17
2022-11-21T19:28:22.412Z,2.18
2022-11-21T19:31:25.859Z,2.21
2022-11-21T19:34:28.740Z,2.25
2022-11-21T19:37:31.956Z,2.26
2022-11-21T19:40:56.010Z,2.26
2022-11-21T19:43:59.995Z,2.30
2022-11-21T19:47:02.796Z,2.32
2022-11-21T19:50:06.279Z,2.32
2022-11-21T19:53:09.457Z,2.32
2022-11-21T19:56:14.006Z,2.35
2022-11-21T19:59:16.795Z,2.32
2022-11-21T20:02:24.567Z,2.34
2022-11-21T20:05:35.433Z,2.39
2022-11-21T20:08:38.251Z,2.46
2022-11-21T20:11:42.557Z,2.40
2022-11-21T20:14:45.026Z,2.41
2022-11-21T20:17:51.363Z,2.40
2022-11-21T20:20:54.018Z,2.40
2022-11-21T20:23:57.711Z,2.38
2022-11-21T20:27:00.559Z,2.41
2022-11-21T20:30:04.396Z,2.43
2022-11-21T20:33:11.133Z,2.41
2022-11-21T20:36:19.806Z,2.42
2022-11-21T20:39:22.314Z,2.36
2022-11-21T20:42:25.552Z,2.37
2022-11-21T20:48:51.568Z,2.36
2022-11-21T20:53:43.898Z,2.38
2022-11-21T20:55:17.687Z,2.35
2022-11-21T20:58:20.502Z,2.36
2022-11-21T21:01:24.273Z,2.35
2022-11-21T21:04:27.265Z,2.38
2022-11-21T21:07:30.255Z,2.34
2022-11-21T21:10:51.369Z,2.33
2022-11-21T21:13:56.018Z,2.38
2022-11-21T21:16:58.653Z,2.28
2022-11-21T21:20:01.654Z,2.31
2022-11-21T21:23:04.324Z,2.32
2022-11-21T21:26:18.371Z,2.28
2022-11-21T21:29:24.092Z,2.21
2022-11-21T21:32:27.007Z,2.21
2022-11-21T21:35:29.802Z,2.22
2022-11-21T21:38:33.913Z,2.18
2022-11-21T21:41:39.962Z,2.19
2022-11-21T21:44:50.415Z,2.18
2022-11-21T21:47:57.317Z,2.23
2022-11-21T21:51:07.197Z,2.23
2022-11-21T21:54:20.046Z,2.22
2022-11-21T21:57:23.029Z,2.27
2022-11-21T22:00:25.731Z,2.23
2022-11-21T22:03:28.578Z,2.19
2022-11-21T22:06:33.863Z,2.18
2022-11-21T22:09:36.764Z,2.15
2022-11-21T22:12:43.853Z,2.13
2022-11-21T22:15:47.146Z,2.15
2022-11-21T22:18:50.148Z,2.09
2022-11-21T22:21:53.026Z,2.07
2022-11-21T22:24:55.698Z,2.06
2022-11-21T22:27:58.519Z,2.12
2022-11-21T22:31:01.219Z,2.16
2022-11-21T22:34:04.207Z,2.06
2022-11-21T22:37:06.825Z,2.19
2022-11-21T22:40:10.599Z,2.18
2022-11-21T22:43:13.150Z,2.20
2022-11-21T22:46:16.210Z,2.22
2022-11-21T22:49:18.839Z,2.18
2022-11-21T22:52:21.667Z,2.25
2022-11-21T22:55:24.274Z,2.23
2022-11-21T22:58:32.969Z,2.28
2022-11-21T23:01:35.589Z,2.31
2022-11-21T23:04:38.401Z,2.24
2022-11-21T23:07:40.998Z,2.29
2022-11-21T23:10:44.048Z,2.31
2022-11-21T23:13:47.498Z,2.28
2022-11-21T23:16:50.455Z,2.34
2022-11-21T23:19:53.250Z,2.30
2022-11-21T23:22:57.459Z,2.23
2022-11-21T23:26:00.113Z,2.02
2022-11-21T23:29:08.298Z,2.13
2022-11-21T23:32:11.277Z,2.10
2022-11-21T23:35:14.259Z,2.12
2022-11-21T23:38:17.723Z,2.10
2022-11-21T23:41:20.654Z,2.09
2022-11-21T23:44:23.239Z,2.07
2022-11-21T23:47:26.080Z,2.11
2022-11-21T23:50:29.012Z,2.16
2022-11-21T23:53:31.862Z,2.10
2022-11-21T23:56:34.467Z,2.17
2022-11-21T23:59:37.301Z,2.21
